Anchorage, AK

9:12 AM AKDT on April 18, 2015 (GMT -0800)
Westchester Lagoon | | Change Station
CLOSE
Current Station
Personal Weather Station
Location: Anchorage, AK
Elevation: 36 ft
Nearby Weather Stations

Elev 36 ft 61.21 °N, 149.92 °W | Updated 23 seconds ago

Overcast
Overcast
37.3 °F
Feels Like 37 °F
N
3.0
Wind Variable Wind from West
Gusts 0.0 mph

Today
High -- | Low -- °F
--% Chance of Precip.
Yesterday
High -- | Low -- °F
Precip. -- in
6:29 AM 9:29 PM
Waning Crescent, 0% visible
Pressure 29.63 in
Visibility 10.0 miles
Clouds Overcast 11000 ft
Windchill 37 °F
Dew Point 32 °F
Humidity 80%
Rainfall 0.00 in
Snow Depth Not available.
UV 0 out of 12
Pollen Not available.
Air Quality Not available.
Flu Activity Sporadic
METAR PAMR 181653Z 25007KT 10SM OVC110 03/M03 A2963 RMK AO2 SLP034 T00331028

More Conditions Fewer Conditions

Pressure 29.63 in
Visibility 10.0 miles
Clouds Overcast 11000 ft
Windchill 37 °F
Dew Point 32 °F
Humidity 80%
Rainfall 0.00 in
Snow Depth Not available.
UV 0 out of 12
Pollen Not available.
Air Quality Not available.
Flu Activity Sporadic
METAR PAMR 181653Z 25007KT 10SM OVC110 03/M03 A2963 RMK AO2 SLP034 T00331028

More Conditions Fewer Conditions

10-Day Weather Forecast

Almanac

Astronomy

Apr. 18, 2015 Rise Set
Actual Time
Civil Twilight
Nautical Twilight
Astronomical Twilight
Moon
Length of Visible Light
Length of Day
Tomorrow will be .
, % of the Moon is Illuminated

Today's Extremes

State Highs State Lows

Community

WunderPhotos

Upload Photos

1,814,464 photos uploaded!

WunderBlogs® & News

Nearby

Air Quality

  Air Quality AQ Index Pollutant
Not available.

Snow Depth

Station Depth Elevation

Earthquake Activity

City Distance Mag. Time & Date
Minimum magnitude displayed is 2.5.

Coastal Water Temperatures

Place Temperature

Stations

Nearby Weather Stations

Station Location Temp. Windchill Dew Point Humidity Wind Precip. Elev Updated Type